Nuevo Laredo, Mexico

10:37 AM CST on October 31, 2014 (GMT -0600)
Laredo International | Change Station
CLOSE
Current Station
Airport
Location: Laredo,
Elevation: 509 ft
Nearby Weather Stations

Elev 509 ft 27.54 °N, 99.46 °W | Updated 13 minutes ago

Rain
Rain
66 °F
Feels Like 66 °F
N
12
Wind Variable Wind from North

Today
High -- | Low -- °F
--% Chance of Precip.
Yesterday
High -- | Low -- °F
Precip. -- in
6:48 AM 5:55 PM
First Quarter, 57% visible
Pressure 30.28 in
Visibility 10.0 miles
Clouds Few 700 ft
Scattered Clouds 2500 ft
Mostly Cloudy 7000 ft
Dew Point 66 °F
Humidity 100%
Rainfall 0.35 in
Snow Depth Not available.
UV 3 out of 12
Pollen Not available.
Air Quality Not available.
Flu Activity Not available.
SPECI KLRD 311624Z 01010KT 10SM FEW007 SCT025 BKN070 19/19 A3028 RMK AO2 RAE10 P0000

More Conditions Fewer Conditions

Pressure 30.28 in
Visibility 10.0 miles
Clouds Few 700 ft
Scattered Clouds 2500 ft
Mostly Cloudy 7000 ft
Dew Point 66 °F
Humidity 100%
Rainfall 0.35 in
Snow Depth Not available.
UV 3 out of 12
Pollen Not available.
Air Quality Not available.
Flu Activity Not available.
SPECI KLRD 311624Z 01010KT 10SM FEW007 SCT025 BKN070 19/19 A3028 RMK AO2 RAE10 P0000

More Conditions Fewer Conditions

10-Day Weather Forecast

Almanac

Astronomy

Oct. 31, 2014 Rise Set
Actual Time
Civil Twilight
Nautical Twilight
Astronomical Twilight
Moon
Length of Visible Light
Length of Day
Tomorrow will be .
, % of the Moon is Illuminated

Today's Extremes

Country Highs Country Lows

Community

WunderPhotos

Upload Photos

1,766,656 photos uploaded!

WunderBlogs® & News

Nearby

Air Quality

  Air Quality AQ Index Pollutant
Not available.

Snow Depth

Station Depth Elevation

Earthquake Activity

City Distance Mag. Time & Date
Minimum magnitude displayed is 2.5.

Coastal Water Temperatures

Place Temperature

Nearby Weather Stations